Villalbilla, Spain
Current Conditions -  °F | °C
As of 9:00 AM on Monday 24 Nov 2014 (Local Time) from LETO Reporting Station
Few Clouds Few Clouds  
Wind Chill: 10°   Ceiling: Unl
Heat Index: 10°   Visibility: 6mi
Dew Point:   Wind: 2mph
Humidity: 94%   Direction: 10°N
Pressure: 30.06"   Gusts: NA
Location:  40.43°N, 3.3°W
Report Text: LETO 240800Z 01002KT 9999 FEW070 10/09 Q1018 NOSIG
Loading
Personal Weather Stations






























Interactive Weather Map New forecast layout! Learn more

10-Day Weather Forecast

Advertisements
Track Severe Weather on mobile